Time;durP1;ratioP1;P1;durP2;ratioP2;P2;SDS_P1;SDS_P2;PMS_P1;PMS_P2;Temp;Humidity;BMP_temperature;BMP_pressure;BME280_temperature;BME280_humidity;BME280_pressure;Samples;Min_cycle;Max_cycle;Signal;HPM_P1;HPM_P2
2023/08/05 00:02:23;;;;;;;1.17;0.70;;;;;;;17.79;83.90;100819.00;5042134;28;20040;-66
2023/08/05 00:04:49;;;;;;;0.85;0.60;;;;;;;17.72;84.27;100818.28;5046039;28;20044;-66
2023/08/05 00:07:14;;;;;;;1.48;0.68;;;;;;;17.67;84.32;100813.25;5040894;28;20041;-65
2023/08/05 00:09:39;;;;;;;0.93;0.70;;;;;;;17.65;84.82;100808.19;5035921;28;20036;-64
2023/08/05 00:12:05;;;;;;;4.53;0.93;;;;;;;17.64;85.03;100827.66;5029718;28;20034;-64
2023/08/05 00:14:33;;;;;;;1.45;0.60;;;;;;;17.56;85.15;100823.44;5036721;28;20029;-65
2023/08/05 00:16:59;;;;;;;1.13;0.57;;;;;;;17.56;85.30;100826.16;5039769;28;20047;-64
2023/08/05 00:19:24;;;;;;;0.82;0.60;;;;;;;17.47;85.40;100829.28;5048355;28;20049;-65
2023/08/05 00:21:50;;;;;;;0.55;0.50;;;;;;;17.44;85.74;100830.06;5029534;28;20719;-64
2023/08/05 00:24:15;;;;;;;0.77;0.52;;;;;;;17.51;85.59;100834.75;5036092;28;20447;-64
2023/08/05 00:26:41;;;;;;;0.95;0.55;;;;;;;17.51;85.84;100834.75;5040809;28;20034;-63
2023/08/05 00:29:06;;;;;;;1.02;0.52;;;;;;;17.39;86.18;100833.22;5028636;28;20483;-63
2023/08/05 00:31:31;;;;;;;0.75;0.40;;;;;;;17.40;86.33;100834.75;5019481;28;20481;-63
2023/08/05 00:33:57;;;;;;;5.75;0.77;;;;;;;17.42;86.33;100840.59;5052958;28;20083;-63
2023/08/05 00:36:22;;;;;;;0.57;0.52;;;;;;;17.37;87.55;100835.56;5047244;28;20033;-65
2023/08/05 00:38:48;;;;;;;0.65;0.55;;;;;;;17.51;87.78;100829.31;5045489;28;20057;-64
2023/08/05 00:41:13;;;;;;;1.00;0.60;;;;;;;17.59;87.93;100830.81;5032755;28;20094;-65
2023/08/05 00:43:40;;;;;;;1.25;0.63;;;;;;;17.51;88.34;100821.91;5031653;28;20438;-64
2023/08/05 00:46:05;;;;;;;0.75;0.68;;;;;;;17.55;88.38;100828.13;5028377;28;20033;-64
2023/08/05 00:48:51;;;;;;;0.95;0.50;;;;;;;17.50;89.06;100823.06;5033970;28;20108;-64
2023/08/05 00:51:20;;;;;;;0.70;0.60;;;;;;;17.60;89.52;100833.13;4973458;28;20154;-64
2023/08/05 00:53:47;;;;;;;1.23;0.93;;;;;;;17.61;89.10;100823.03;4963630;28;20465;-63
2023/08/05 00:56:14;;;;;;;1.48;0.75;;;;;;;17.62;89.26;100825.34;4973001;28;20046;-64
2023/08/05 00:58:40;;;;;;;3.25;1.20;;;;;;;17.64;89.04;100828.44;4974815;28;20098;-64
2023/08/05 01:01:05;;;;;;;1.00;0.80;;;;;;;17.70;89.19;100828.81;4970918;28;20047;-66
2023/08/05 01:03:31;;;;;;;2.20;0.80;;;;;;;17.74;89.14;100822.16;4955544;28;20121;-64
2023/08/05 01:05:59;;;;;;;1.02;0.82;;;;;;;17.84;89.26;100820.53;4973054;28;20201;-64
2023/08/05 01:08:25;;;;;;;1.27;0.80;;;;;;;17.84;89.69;100824.06;4958280;28;20410;-64
2023/08/05 01:10:51;;;;;;;2.33;0.95;;;;;;;18.00;89.06;100835.22;4970296;28;20039;-63
2023/08/05 01:13:16;;;;;;;1.60;0.80;;;;;;;18.00;88.85;100835.22;4958163;28;20632;-65
2023/08/05 01:15:42;;;;;;;0.90;0.50;;;;;;;17.95;89.49;100830.19;4973735;28;20117;-64
2023/08/05 01:18:09;;;;;;;1.35;1.25;;;;;;;17.99;89.36;100833.69;4954599;28;20063;-62
2023/08/05 01:20:39;;;;;;;3.38;1.17;;;;;;;18.01;89.20;100836.78;4948377;28;20105;-62
2023/08/05 01:23:50;;;;;;;0.93;0.68;;;;;;;18.01;89.55;100833.28;4966831;28;20035;-63
2023/08/05 01:26:16;;;;;;;;;;;;;;;17.97;89.47;100838.75;4938341;28;20066;-63
2023/08/05 01:28:45;;;;;;;1.45;0.93;;;;;;;17.87;89.65;100825.97;5008556;28;19925;-63
2023/08/05 01:31:13;;;;;;;0.98;0.88;;;;;;;17.91;89.61;100828.66;5047093;28;20484;-63
2023/08/05 01:33:39;;;;;;;1.63;0.68;;;;;;;17.96;89.69;100830.97;5025555;28;20116;-64
2023/08/05 01:36:04;;;;;;;1.55;0.73;;;;;;;18.06;88.70;100834.81;5051468;28;20112;-62
2023/08/05 01:38:50;;;;;;;0.75;0.60;;;;;;;18.01;88.97;100836.00;5023817;28;20021;-64
2023/08/05 01:41:16;;;;;;;1.42;0.82;;;;;;;17.96;89.57;100817.34;4951204;28;20063;-64
2023/08/05 01:43:42;;;;;;;2.78;0.70;;;;;;;17.92;89.59;100830.97;4942993;29;20028;-64
2023/08/05 01:46:07;;;;;;;1.00;0.52;;;;;;;17.99;89.35;100828.22;4938604;29;20109;-63
2023/08/05 01:48:33;;;;;;;1.33;0.73;;;;;;;17.92;89.10;100825.53;4965891;28;20077;-63
2023/08/05 01:50:58;;;;;;;1.75;1.13;;;;;;;17.81;90.19;100830.28;4970432;28;20643;-63
2023/08/05 01:53:23;;;;;;;1.08;0.80;;;;;;;17.85;90.47;100832.97;4954614;28;20099;-63
2023/08/05 01:55:49;;;;;;;1.50;0.55;;;;;;;17.84;90.63;100823.28;4941621;28;20047;-63
2023/08/05 01:58:14;;;;;;;0.90;0.50;;;;;;;17.80;90.87;100823.31;4957937;28;20115;-64
2023/08/05 02:00:41;;;;;;;0.85;0.60;;;;;;;17.88;90.24;100824.81;4940952;28;20030;-65
2023/08/05 02:03:06;;;;;;;3.25;0.77;;;;;;;17.91;90.44;100823.22;4966190;28;20580;-67
2023/08/05 02:05:31;;;;;;;1.17;0.70;;;;;;;17.95;90.39;100824.75;4967618;28;20111;-64
2023/08/05 02:07:57;;;;;;;6.40;0.85;;;;;;;17.95;90.70;100819.31;4958063;28;20061;-63
2023/08/05 02:10:23;;;;;;;0.85;0.60;;;;;;;17.98;90.03;100815.75;4965777;28;20399;-62
2023/08/05 02:12:48;;;;;;;0.73;0.50;;;;;;;17.99;90.64;100809.16;4963899;28;20113;-64
2023/08/05 02:15:14;;;;;;;3.80;0.98;;;;;;;17.94;90.60;100809.56;4965604;28;20207;-63
2023/08/05 02:17:39;;;;;;;0.60;0.60;;;;;;;17.97;90.89;100811.50;4984819;28;20481;-63
2023/08/05 02:20:06;;;;;;;2.17;0.75;;;;;;;17.98;90.85;100815.00;5043660;28;20121;-64
2023/08/05 02:22:31;;;;;;;1.05;0.70;;;;;;;17.90;90.70;100825.16;5026651;28;20028;-62
2023/08/05 02:24:57;;;;;;;0.93;0.65;;;;;;;17.87;90.62;100831.41;5025974;28;20033;-62
2023/08/05 02:27:23;;;;;;;0.55;0.52;;;;;;;17.93;90.43;100827.09;5027925;28;20036;-64
2023/08/05 02:29:48;;;;;;;1.05;0.85;;;;;;;17.95;90.49;100827.47;5037646;28;20062;-63
2023/08/05 02:32:16;;;;;;;1.10;0.60;;;;;;;17.86;89.95;100821.72;5031976;28;20089;-63
2023/08/05 02:34:41;;;;;;;2.05;0.93;;;;;;;17.96;89.63;100829.00;5026471;28;20021;-65
2023/08/05 02:37:07;;;;;;;0.80;0.80;;;;;;;17.84;90.32;100832.22;5030841;28;20040;-63
2023/08/05 02:39:32;;;;;;;2.47;0.77;;;;;;;17.90;90.55;100833.34;5031216;28;20025;-64
2023/08/05 02:41:57;;;;;;;0.60;0.40;;;;;;;17.99;90.10;100839.13;5014181;28;20069;-63
2023/08/05 02:44:23;;;;;;;1.13;0.77;;;;;;;17.99;89.80;100841.84;5033630;28;20457;-62
2023/08/05 02:46:48;;;;;;;1.30;0.70;;;;;;;17.99;90.54;100830.94;5018027;28;20120;-64
2023/08/05 02:49:14;;;;;;;1.30;0.90;;;;;;;17.99;90.27;100832.91;5014297;28;20068;-64
2023/08/05 02:51:39;;;;;;;3.50;0.80;;;;;;;18.00;90.63;100832.50;5032368;28;20037;-64
2023/08/05 02:54:05;;;;;;;2.88;0.60;;;;;;;18.02;90.01;100832.88;5027628;28;20033;-63
2023/08/05 02:56:33;;;;;;;0.98;0.50;;;;;;;18.09;90.32;100834.00;5026700;28;20121;-64
2023/08/05 02:58:59;;;;;;;0.65;0.52;;;;;;;18.10;89.98;100833.59;5038023;28;20091;-63
2023/08/05 03:01:24;;;;;;;0.35;0.28;;;;;;;18.08;90.40;100833.22;5027429;28;20483;-64
2023/08/05 03:03:49;;;;;;;0.82;0.70;;;;;;;18.06;90.21;100832.09;5039588;28;20048;-64
2023/08/05 03:06:15;;;;;;;1.33;0.75;;;;;;;18.04;90.35;100829.72;5019898;28;20037;-64
2023/08/05 03:08:40;;;;;;;4.50;0.50;;;;;;;18.02;90.62;100835.59;5030647;28;20031;-64
2023/08/05 03:11:06;;;;;;;0.75;0.50;;;;;;;18.03;91.01;100828.97;5024553;28;20045;-63
2023/08/05 03:13:32;;;;;;;1.05;0.60;;;;;;;18.07;91.07;100825.44;5031903;28;20490;-65
2023/08/05 03:16:13;;;;;;;0.50;0.43;;;;;;;18.04;91.34;100829.72;5038113;28;20025;-64
2023/08/05 03:18:47;;;;;;;0.68;0.60;;;;;;;18.06;91.35;100826.63;5036129;28;20117;-64
2023/08/05 03:21:12;;;;;;;1.65;0.70;;;;;;;18.13;90.92;100824.63;5024111;28;20579;-64
2023/08/05 03:23:38;;;;;;;2.20;0.70;;;;;;;18.07;91.34;100822.72;5023057;28;20024;-63
2023/08/05 03:26:04;;;;;;;1.10;0.63;;;;;;;18.06;91.37;100821.19;5027849;28;20028;-63
2023/08/05 03:28:30;;;;;;;0.98;0.50;;;;;;;18.00;90.95;100816.13;5048390;28;20600;-63
2023/08/05 03:30:56;;;;;;;1.95;1.30;;;;;;;17.99;91.50;100827.44;5019480;28;20646;-64
2023/08/05 03:33:46;;;;;;;0.52;0.38;;;;;;;18.00;91.53;100824.31;5023464;28;20556;-64
2023/08/05 03:36:13;;;;;;;1.02;0.63;;;;;;;17.98;91.01;100818.50;4950923;28;20509;-64
2023/08/05 03:38:40;;;;;;;1.15;0.80;;;;;;;17.98;91.05;100812.28;4938813;29;20487;-66
2023/08/05 03:41:05;;;;;;;0.70;0.60;;;;;;;17.96;91.61;100809.19;4960718;28;20095;-64
2023/08/05 03:43:32;;;;;;;0.80;0.60;;;;;;;17.92;91.99;100805.69;4947503;29;20050;-64
2023/08/05 03:46:00;;;;;;;1.15;0.60;;;;;;;17.97;91.86;100806.03;4945876;28;20398;-62
2023/08/05 03:48:26;;;;;;;2.72;0.82;;;;;;;17.97;92.35;100810.72;4944775;28;20039;-64
2023/08/05 03:50:51;;;;;;;0.75;0.50;;;;;;;18.00;92.44;100807.97;4959016;28;20518;-63
2023/08/05 03:53:17;;;;;;;1.13;0.50;;;;;;;18.02;92.32;100802.88;4967461;28;20137;-63
2023/08/05 03:55:42;;;;;;;0.85;0.52;;;;;;;17.95;92.20;100802.16;4932770;29;20073;-64
2023/08/05 03:58:11;;;;;;;1.15;0.75;;;;;;;17.88;92.27;100789.38;4956987;28;20023;-62
2023/08/05 04:00:40;;;;;;;0.90;0.50;;;;;;;17.85;91.98;100803.78;4942456;28;20039;-64
2023/08/05 04:03:06;;;;;;;2.13;0.60;;;;;;;17.74;91.95;100796.88;4944108;28;20039;-65
2023/08/05 04:05:31;;;;;;;0.45;0.45;;;;;;;17.67;91.75;100794.94;4959967;28;20096;-63
2023/08/05 04:07:58;;;;;;;1.90;0.73;;;;;;;17.62;92.46;100787.22;4931820;29;20031;-64
2023/08/05 04:10:24;;;;;;;1.08;0.98;;;;;;;17.69;92.44;100789.88;4942155;28;20045;-62
2023/08/05 04:12:50;;;;;;;1.67;0.95;;;;;;;17.71;92.17;100782.09;4981105;28;20140;-64
2023/08/05 04:15:18;;;;;;;0.90;0.80;;;;;;;17.78;91.71;100776.59;5030571;28;20067;-63
2023/08/05 04:17:44;;;;;;;4.55;0.60;;;;;;;17.76;92.65;100778.94;5029846;28;20091;-62
2023/08/05 04:20:13;;;;;;;0.63;0.45;;;;;;;17.69;92.81;100776.25;5044085;28;20036;-63
2023/08/05 04:22:39;;;;;;;1.08;0.68;;;;;;;17.76;93.41;100770.78;5027729;28;20086;-63
2023/08/05 04:25:05;;;;;;;1.08;0.90;;;;;;;17.76;93.29;100776.22;5011028;28;20041;-65
2023/08/05 04:27:31;;;;;;;1.50;1.27;;;;;;;17.84;93.71;100785.13;5030475;28;20059;-64
2023/08/05 04:29:58;;;;;;;2.05;0.82;;;;;;;17.90;93.42;100775.34;5036690;28;20037;-63
2023/08/05 04:32:23;;;;;;;2.35;1.33;;;;;;;17.95;93.43;100772.19;5024130;28;20021;-64
2023/08/05 04:34:49;;;;;;;1.40;0.70;;;;;;;18.00;93.64;100767.06;5043220;28;20040;-64
2023/08/05 04:37:19;;;;;;;1.15;0.80;;;;;;;18.07;93.77;100770.91;5027614;28;20534;-63
2023/08/05 04:39:45;;;;;;;1.88;0.93;;;;;;;18.10;93.60;100778.31;5039950;28;20511;-64
2023/08/05 04:42:11;;;;;;;0.98;0.63;;;;;;;18.10;93.93;100767.41;5034591;28;20111;-64
2023/08/05 04:44:41;;;;;;;0.77;0.63;;;;;;;18.13;94.10;100777.50;5041842;28;20073;-63
2023/08/05 04:47:08;;;;;;;2.08;0.68;;;;;;;18.16;94.21;100774.72;5040804;28;20569;-64
2023/08/05 04:49:33;;;;;;;1.48;0.85;;;;;;;18.22;94.14;100764.16;5040768;28;20025;-63
2023/08/05 04:51:59;;;;;;;1.13;0.80;;;;;;;18.19;93.91;100764.97;5030894;28;20183;-63
2023/08/05 04:54:24;;;;;;;0.98;0.65;;;;;;;18.34;92.93;100763.66;5032974;28;20044;-63
2023/08/05 04:56:50;;;;;;;1.45;0.70;;;;;;;18.38;92.11;100776.09;5042756;28;20167;-64
2023/08/05 04:59:15;;;;;;;1.23;0.82;;;;;;;18.31;91.90;100775.41;5037695;28;20021;-63
2023/08/05 05:01:41;;;;;;;1.17;0.63;;;;;;;18.33;91.85;100781.22;5037995;28;20499;-64
2023/08/05 05:04:06;;;;;;;1.23;0.77;;;;;;;18.31;92.24;100776.16;5038023;28;20041;-64
2023/08/05 05:06:32;;;;;;;1.55;0.70;;;;;;;18.42;90.99;100779.59;5040736;28;20083;-62
2023/08/05 05:08:57;;;;;;;1.73;0.90;;;;;;;18.29;91.47;100773.03;5048925;28;20025;-64
2023/08/05 05:11:23;;;;;;;0.82;0.40;;;;;;;18.32;92.04;100769.53;5065920;22;20110;-66
2023/08/05 05:13:50;;;;;;;2.72;0.82;;;;;;;18.40;91.52;100768.28;5043674;28;20167;-67
2023/08/05 05:16:18;;;;;;;2.05;0.68;;;;;;;18.38;91.62;100767.13;5050143;28;20059;-66
2023/08/05 05:18:44;;;;;;;1.70;0.82;;;;;;;18.40;92.04;100775.69;5064095;28;20028;-67
2023/08/05 05:21:10;;;;;;;1.02;0.55;;;;;;;18.34;92.12;100780.81;5043514;28;20115;-67
2023/08/05 05:23:35;;;;;;;1.30;0.85;;;;;;;18.39;91.94;100785.06;5039950;28;20037;-67
2023/08/05 05:26:21;;;;;;;1.80;0.82;;;;;;;18.35;91.99;100784.31;5069523;28;20127;-66
2023/08/05 05:28:47;;;;;;;2.47;0.88;;;;;;;18.21;93.30;100787.16;4944041;28;20043;-67
2023/08/05 05:31:12;;;;;;;5.43;1.02;;;;;;;18.22;92.41;100796.88;4963902;28;20053;-67
2023/08/05 05:33:38;;;;;;;1.27;1.13;;;;;;;18.21;92.82;100796.13;4962526;28;20414;-67
2023/08/05 05:36:03;;;;;;;3.58;1.25;;;;;;;18.24;92.35;100792.59;4965167;28;20039;-67
2023/08/05 05:38:29;;;;;;;7.35;0.77;;;;;;;18.21;91.87;100789.88;4971361;28;20769;-67
2023/08/05 05:40:54;;;;;;;1.60;0.73;;;;;;;18.25;91.32;100782.47;4947744;28;20030;-67
2023/08/05 05:43:20;;;;;;;2.05;0.82;;;;;;;18.47;91.67;100778.38;4967157;28;20035;-67
2023/08/05 05:45:46;;;;;;;2.15;0.93;;;;;;;18.67;90.03;100787.53;4970215;28;20418;-67
2023/08/05 05:48:12;;;;;;;4.22;1.25;;;;;;;18.81;90.80;100793.59;4966394;28;20113;-66
2023/08/05 05:50:40;;;;;;;1.25;0.75;;;;;;;18.94;89.69;100796.56;4946827;29;20477;-66
2023/08/05 05:53:08;;;;;;;0.93;0.80;;;;;;;19.01;88.45;100804.69;4967406;28;20043;-67
2023/08/05 05:55:33;;;;;;;0.88;0.63;;;;;;;18.96;87.79;100810.59;4974522;28;20509;-67
2023/08/05 05:57:59;;;;;;;0.88;0.73;;;;;;;19.15;87.27;100820.91;4967683;28;20033;-67
2023/08/05 06:00:24;;;;;;;7.72;0.70;;;;;;;19.20;85.24;100828.63;4951482;28;20035;-67
2023/08/05 06:02:50;;;;;;;3.03;0.70;;;;;;;19.14;86.02;100840.44;4960697;28;20043;-67
2023/08/05 06:05:17;;;;;;;1.02;0.55;;;;;;;19.25;85.70;100836.38;4976473;28;20132;-67
2023/08/05 06:07:43;;;;;;;1.50;0.45;;;;;;;19.42;85.85;100829.94;5064632;28;20040;-66
2023/08/05 06:10:08;;;;;;;0.63;0.50;;;;;;;19.59;86.06;100833.63;5060215;28;20052;-67
2023/08/05 06:12:36;;;;;;;0.63;0.63;;;;;;;19.78;86.12;100824.78;5061414;28;20085;-67
2023/08/05 06:15:01;;;;;;;1.15;0.77;;;;;;;20.02;86.05;100825.56;5051668;28;20732;-67
2023/08/05 06:17:27;;;;;;;1.13;0.45;;;;;;;20.34;84.23;100834.09;5046546;28;20044;-67
2023/08/05 06:19:53;;;;;;;1.63;0.75;;;;;;;20.57;83.80;100829.38;5053878;28;20100;-67
2023/08/05 06:22:19;;;;;;;1.60;1.00;;;;;;;20.86;82.92;100826.91;5049544;28;20035;-67
2023/08/05 06:24:44;;;;;;;0.70;0.52;;;;;;;21.11;81.56;100831.91;5064488;28;20527;-67
2023/08/05 06:27:10;;;;;;;1.05;0.45;;;;;;;21.01;78.23;100836.41;5062322;28;20041;-67
2023/08/05 06:29:35;;;;;;;2.08;0.60;;;;;;;20.97;79.30;100832.94;5045780;28;20033;-67
2023/08/05 06:32:01;;;;;;;1.23;0.65;;;;;;;21.09;79.58;100835.09;5059559;28;20029;-67
2023/08/05 06:34:26;;;;;;;4.65;0.65;;;;;;;21.24;78.08;100841.03;5066429;28;20683;-67
2023/08/05 06:36:52;;;;;;;0.60;0.43;;;;;;;21.32;77.56;100842.44;5057548;28;20036;-67
2023/08/05 06:39:17;;;;;;;2.05;0.63;;;;;;;21.24;78.61;100841.81;5043636;28;20108;-67
2023/08/05 06:41:42;;;;;;;2.42;0.85;;;;;;;21.33;77.70;100839.28;5047635;28;20053;-67
2023/08/05 06:44:08;;;;;;;3.65;0.57;;;;;;;21.02;77.20;100842.66;5042829;28;20033;-67
2023/08/05 06:46:33;;;;;;;2.33;0.95;;;;;;;20.57;79.39;100843.06;5067975;28;20024;-67
2023/08/05 06:48:59;;;;;;;0.55;0.32;;;;;;;20.53;79.14;100836.09;5066758;28;20519;-67
2023/08/05 06:51:24;;;;;;;0.88;0.60;;;;;;;;;;5049068;28;20506;-67
2023/08/05 06:53:50;;;;;;;0.73;0.57;;;;;;;20.60;79.33;100833.22;5047416;28;20048;-67
2023/08/05 06:56:15;;;;;;;0.50;0.50;;;;;;;20.59;78.59;100839.91;5065347;28;20044;-67
2023/08/05 06:59:01;;;;;;;4.00;0.50;;;;;;;20.71;78.57;100836.56;5055244;28;20103;-67
2023/08/05 07:01:26;;;;;;;1.75;0.85;;;;;;;20.68;79.32;100837.41;4981813;28;20061;-67
2023/08/05 07:03:52;;;;;;;0.30;0.30;;;;;;;20.71;79.76;100831.09;4968465;28;20050;-68
2023/08/05 07:06:17;;;;;;;0.65;0.55;;;;;;;20.76;80.52;100830.59;4976001;28;20093;-67
2023/08/05 07:08:43;;;;;;;1.30;0.73;;;;;;;20.91;79.93;100823.66;4963382;28;20046;-67
2023/08/05 07:11:08;;;;;;;1.00;0.60;;;;;;;20.58;79.03;100817.22;4981565;28;20043;-67
2023/08/05 07:13:34;;;;;;;3.22;0.80;;;;;;;20.67;79.60;100824.91;4982693;28;20129;-67
2023/08/05 07:16:01;;;;;;;1.40;0.52;;;;;;;20.99;78.62;100819.59;4979630;28;20034;-67
2023/08/05 07:18:27;;;;;;;0.77;0.70;;;;;;;20.93;77.88;100824.00;4982832;28;20105;-66
2023/08/05 07:20:53;;;;;;;0.93;0.70;;;;;;;20.65;79.57;100827.28;4958664;28;20039;-67
2023/08/05 07:23:18;;;;;;;0.95;0.63;;;;;;;20.88;78.46;100818.25;4975843;28;20121;-67
2023/08/05 07:25:44;;;;;;;2.05;1.48;;;;;;;20.99;79.13;100829.75;4986543;28;20117;-67
2023/08/05 07:28:10;;;;;;;0.77;0.50;;;;;;;20.85;78.18;100819.84;4979646;28;20049;-67
2023/08/05 07:30:35;;;;;;;1.48;0.60;;;;;;;20.47;79.57;100821.34;4981005;28;20043;-67
2023/08/05 07:33:04;;;;;;;1.33;0.60;;;;;;;20.93;78.70;100821.28;4972341;28;20817;-67
2023/08/05 07:35:30;;;;;;;4.97;0.73;;;;;;;21.47;78.76;100819.00;4972200;28;20109;-67
2023/08/05 07:37:56;;;;;;;2.17;0.63;;;;;;;21.91;77.41;100812.94;4998169;28;20097;-67
2023/08/05 07:40:22;;;;;;;1.20;0.60;;;;;;;22.13;75.95;100813.22;5046313;28;20441;-67
2023/08/05 07:42:49;;;;;;;2.67;0.52;;;;;;;22.32;74.89;100793.91;5046252;28;20123;-66
2023/08/05 07:45:17;;;;;;;1.55;0.60;;;;;;;22.43;74.51;100796.38;5056831;28;20077;-67
2023/08/05 07:47:46;;;;;;;4.43;1.35;;;;;;;22.25;73.82;100787.81;5042300;28;20074;-67
2023/08/05 07:50:16;;;;;;;0.95;0.40;;;;;;;22.35;73.84;100792.28;5063859;28;20104;-67
2023/08/05 07:52:43;;;;;;;1.25;0.60;;;;;;;22.35;73.78;100782.06;5060781;28;20035;-67
2023/08/05 07:55:08;;;;;;;1.85;0.93;;;;;;;22.39;72.70;100779.22;5067071;28;20176;-67
2023/08/05 07:57:35;;;;;;;1.27;0.95;;;;;;;22.45;70.21;100772.00;5061328;28;20035;-66
2023/08/05 08:00:01;;;;;;;0.75;0.50;;;;;;;22.53;70.45;100767.09;5053123;28;20040;-67
2023/08/05 08:02:38;;;;;;;2.13;0.60;;;;;;;23.05;70.20;100756.63;5061509;28;20056;-67
2023/08/05 08:05:05;;;;;;;0.63;0.60;;;;;;;23.39;69.68;100756.03;5063685;28;20044;-67
2023/08/05 08:07:31;;;;;;;4.63;0.80;;;;;;;23.52;67.12;100751.31;5069027;28;20028;-67
2023/08/05 08:09:56;;;;;;;1.75;0.63;;;;;;;23.65;68.12;100752.06;5069849;28;20506;-67
2023/08/05 08:12:22;;;;;;;2.08;0.47;;;;;;;23.78;69.34;100755.56;5050719;28;20040;-67
2023/08/05 08:14:47;;;;;;;0.85;0.70;;;;;;;24.08;69.45;100753.00;5053223;28;20029;-67
2023/08/05 08:17:15;;;;;;;1.27;0.68;;;;;;;24.13;68.27;100746.19;5069933;28;20478;-67
2023/08/05 08:19:40;;;;;;;1.38;0.60;;;;;;;24.34;65.49;100756.47;5069661;28;20107;-67
2023/08/05 08:22:06;;;;;;;0.65;0.32;;;;;;;24.28;61.98;100751.94;5061806;28;20506;-67
2023/08/05 08:24:35;;;;;;;1.00;0.45;;;;;;;23.64;58.81;100756.00;5064447;28;20021;-67
2023/08/05 08:27:00;;;;;;;2.65;0.50;;;;;;;23.56;60.45;100755.47;5067117;28;20492;-67
2023/08/05 08:29:26;;;;;;;0.50;0.22;;;;;;;23.47;60.30;100749.09;5069326;28;20163;-67
2023/08/05 08:31:51;;;;;;;2.63;0.47;;;;;;;23.26;62.21;100756.78;5062829;28;20115;-67
2023/08/05 08:34:16;;;;;;;1.05;0.68;;;;;;;23.14;63.56;100759.50;5065396;28;20037;-67
2023/08/05 08:36:42;;;;;;;1.80;0.60;;;;;;;23.14;64.56;100765.75;5064923;28;20522;-67
2023/08/05 08:39:07;;;;;;;1.10;0.32;;;;;;;22.76;65.09;100777.88;5049358;28;20363;-67
2023/08/05 08:41:41;;;;;;;2.13;0.43;;;;;;;22.72;63.17;100771.69;5059703;28;20182;-67
2023/08/05 08:44:11;;;;;;;0.57;0.40;;;;;;;22.61;64.41;100774.72;5058015;28;20025;-67
2023/08/05 08:46:37;;;;;;;0.60;0.50;;;;;;;22.60;61.07;100770.44;5069588;28;20439;-67
2023/08/05 08:49:03;;;;;;;2.28;0.80;;;;;;;22.34;61.04;100764.03;5070209;28;20028;-67
2023/08/05 08:51:29;;;;;;;0.22;0.22;;;;;;;22.23;61.59;100769.03;5066982;28;20044;-67
2023/08/05 08:53:55;;;;;;;0.47;0.35;;;;;;;22.03;63.57;100770.34;5068350;28;20032;-67
2023/08/05 08:56:21;;;;;;;0.90;0.35;;;;;;;22.13;64.16;100770.09;5068504;28;20029;-67
2023/08/05 08:58:46;;;;;;;0.73;0.20;;;;;;;22.28;63.01;100775.97;5068874;28;20039;-67
2023/08/05 09:01:16;;;;;;;3.50;0.43;;;;;;;22.35;61.75;100773.84;5066533;28;20039;-67
2023/08/05 09:04:02;;;;;;;0.38;0.30;;;;;;;21.83;60.50;100783.38;5071617;28;20040;-67
2023/08/05 09:06:28;;;;;;;0.45;0.45;;;;;;;21.71;61.22;100768.34;4987150;28;20042;-65
2023/08/05 09:08:53;;;;;;;0.80;0.57;;;;;;;21.97;62.25;100755.63;4986480;28;20485;-66
2023/08/05 09:11:19;;;;;;;0.20;0.20;;;;;;;22.27;60.98;100753.25;4988851;28;20643;-67
2023/08/05 09:13:44;;;;;;;0.50;0.25;;;;;;;22.34;60.27;100749.53;4988242;28;20537;-66
2023/08/05 09:16:13;;;;;;;0.40;0.40;;;;;;;22.11;61.15;100752.50;4986356;28;20034;-66
2023/08/05 09:19:05;;;;;;;0.98;0.50;;;;;;;22.27;62.05;100753.25;4981243;28;20035;-66
2023/08/05 09:21:30;;;;;;;;;;;;;;;22.36;60.32;100749.88;4981805;28;20050;-67
2023/08/05 09:23:57;;;;;;;1.13;0.35;;;;;;;22.47;61.56;100749.59;4980891;28;19920;-66
2023/08/05 09:26:30;;;;;;;0.28;0.15;;;;;;;22.53;62.75;100750.63;4992422;28;20038;-66
2023/08/05 09:28:59;;;;;;;0.25;0.25;;;;;;;22.66;57.75;100735.75;4982843;28;20634;-67
2023/08/05 09:31:25;;;;;;;0.38;0.20;;;;;;;22.29;58.12;100744.59;4984265;28;21040;-66
2023/08/05 09:33:52;;;;;;;0.73;0.43;;;;;;;22.36;60.10;100747.91;4978976;28;20092;-67
2023/08/05 09:36:22;;;;;;;1.17;0.30;;;;;;;22.57;61.22;100745.84;4980081;28;20050;-67
2023/08/05 09:39:00;;;;;;;1.23;0.30;;;;;;;22.87;59.70;100739.88;4978054;28;20042;-67
2023/08/05 09:41:32;;;;;;;0.77;0.43;;;;;;;22.92;56.61;100731.84;4978816;28;20037;-66
2023/08/05 09:43:59;;;;;;;0.52;0.40;;;;;;;23.01;58.32;100734.75;5025209;28;20125;-67
2023/08/05 09:46:37;;;;;;;0.30;0.30;;;;;;;23.52;56.94;100734.81;5044330;28;20041;-67
2023/08/05 09:49:06;;;;;;;0.63;0.13;;;;;;;23.90;55.73;100735.53;5042648;28;20036;-67
2023/08/05 09:51:35;;;;;;;1.27;0.47;;;;;;;24.00;55.29;100731.66;5055623;28;20036;-67
2023/08/05 09:54:05;;;;;;;0.50;0.40;;;;;;;24.01;55.61;100733.97;5040871;28;20024;-67
2023/08/05 09:56:30;;;;;;;2.17;0.50;;;;;;;24.11;56.15;100726.56;5063148;28;20020;-67
2023/08/05 09:58:56;;;;;;;0.50;0.40;;;;;;;23.93;53.12;100721.63;5066004;28;20387;-67
2023/08/05 10:01:22;;;;;;;0.60;0.47;;;;;;;23.46;52.64;100718.06;5020836;28;20042;-68
2023/08/05 10:03:49;;;;;;;0.30;0.30;;;;;;;23.43;54.51;100720.94;5042110;28;20800;-65
2023/08/05 10:06:15;;;;;;;0.30;0.30;;;;;;;23.54;53.10;100707.63;5064541;28;20024;-68
2023/08/05 10:08:42;;;;;;;2.08;0.43;;;;;;;23.83;53.10;100705.47;5051612;28;20476;-67
2023/08/05 10:11:08;;;;;;;0.40;0.30;;;;;;;24.31;53.49;100704.25;5061215;28;20036;-67
2023/08/05 10:13:40;;;;;;;1.88;0.40;;;;;;;24.83;52.94;100705.13;5063978;28;20043;-67
2023/08/05 10:16:08;;;;;;;0.15;0.15;;;;;;;24.95;48.33;100703.50;5054716;28;20581;-67
2023/08/05 10:18:34;;;;;;;3.95;0.50;;;;;;;24.78;48.59;100691.91;5061812;28;20032;-67
2023/08/05 10:21:04;;;;;;;1.55;0.40;;;;;;;25.28;48.34;100687.25;5062832;28;20043;-67
2023/08/05 10:23:33;;;;;;;0.63;0.35;;;;;;;25.71;49.79;100689.84;5056357;28;20029;-67
2023/08/05 10:26:00;;;;;;;0.38;0.30;;;;;;;26.14;48.75;100678.56;5045408;28;20399;-67
2023/08/05 10:28:26;;;;;;;0.30;0.25;;;;;;;25.98;48.52;100684.34;5057363;28;20033;-67
2023/08/05 10:30:54;;;;;;;0.68;0.50;;;;;;;26.07;47.33;100678.09;5058949;28;20029;-67
2023/08/05 10:33:20;;;;;;;0.57;0.35;;;;;;;25.79;47.55;100683.56;5059001;28;20033;-67
2023/08/05 10:35:46;;;;;;;2.05;0.30;;;;;;;25.34;47.36;100680.66;5062812;28;20024;-67
2023/08/05 10:38:21;;;;;;;0.40;0.25;;;;;;;24.94;47.66;100663.34;5060917;28;20039;-68
2023/08/05 10:41:00;;;;;;;1.00;0.45;;;;;;;24.87;48.30;100661.63;5039772;28;20063;-69
2023/08/05 10:43:37;;;;;;;0.80;0.32;;;;;;;24.63;47.96;100657.81;5046240;28;20119;-70
2023/08/05 10:46:06;;;;;;;0.63;0.40;;;;;;;24.84;49.34;100657.03;5044312;28;20130;-68
2023/08/05 10:48:43;;;;;;;0.25;0.25;;;;;;;24.96;49.73;100661.69;5055775;28;20702;-67
2023/08/05 10:51:13;;;;;;;1.15;0.50;;;;;;;25.20;50.47;100658.41;5065338;28;20045;-67
2023/08/05 10:53:59;;;;;;;0.45;0.22;;;;;;;25.21;50.49;100657.97;5059264;28;20090;-68
2023/08/05 10:56:33;;;;;;;1.13;0.47;;;;;;;25.23;50.46;100657.50;5060958;28;20064;-69
2023/08/05 10:59:01;;;;;;;0.30;0.25;;;;;;;25.17;51.10;100662.06;5042298;28;20404;-70
2023/08/05 11:01:55;;;;;;;0.30;0.20;;;;;;;25.17;49.61;100656.56;5063699;28;20047;-68
2023/08/05 11:04:28;;;;;;;0.55;0.40;;;;;;;25.15;50.47;100653.47;5040753;28;20075;-65
2023/08/05 11:06:55;;;;;;;0.73;0.38;;;;;;;25.13;50.24;100644.91;5054967;28;20047;-63
2023/08/05 11:09:22;;;;;;;0.90;0.50;;;;;;;24.98;47.80;100652.97;5057234;28;20483;-62
2023/08/05 11:11:51;;;;;;;0.82;0.50;;;;;;;24.79;47.62;100654.09;5030919;28;20037;-64
2023/08/05 11:14:21;;;;;;;1.52;0.40;;;;;;;24.88;49.73;100651.38;5050138;28;20027;-67
2023/08/05 11:16:47;;;;;;;0.60;0.40;;;;;;;25.00;48.74;100651.31;5059685;28;20040;-64
2023/08/05 11:19:12;;;;;;;0.85;0.50;;;;;;;25.00;48.15;100642.25;5058971;28;20702;-63
2023/08/05 11:21:43;;;;;;;1.58;0.50;;;;;;;25.08;48.37;100643.53;5043007;28;20125;-65
2023/08/05 11:24:17;;;;;;;1.83;0.70;;;;;;;24.86;49.66;100632.56;5021542;28;20978;-64
2023/08/05 11:26:42;;;;;;;0.30;0.30;;;;;;;24.50;48.29;100631.56;5029071;28;20110;-65
2023/08/05 11:29:08;;;;;;;0.75;0.50;;;;;;;24.95;49.47;100626.31;5034434;28;20036;-64